Latest Weather Observations for Tewantin

IDQ60801

Issued at 9:12 pm EST Thursday 18 October 2018 (issued every 10 minutes, with the page automatically refreshed every 10 minutes)

About weather observations | Map of weather stations | Latest weather observations for QLD | Other Formats
Station Details ID: 040908 Name: TEWANTIN RSL PARK Lat: -26.39 Lon: 153.04 Height: 6.4 m
Data from the previous 72 hours. | See also: Recent months at Tewantin
Date/Time
EST
Temp
°C
App
Temp
°C
Dew
Point
°C
Rel
Hum
%
Delta-T
°C
Wind Press
QNH
hPa
Press
MSL
hPa
Rain since
9am
mm
Dir  Spd
km/h
Gust
km/h
Spd
kts
Gust
kts
18/09:00pm 21.7 23.4 19.3 86 1.5 ESE 9 13 5 7 1020.0 1020.0 0.0
18/08:30pm 21.8 23.4 19.2 85 1.6 ESE 9 15 5 8 1020.0 1020.0 0.0
18/08:00pm 21.8 23.3 18.8 83 1.9 E 9 17 5 9 1019.5 1019.5 0.0
18/07:30pm 22.1 23.2 18.9 82 2.0 E 11 19 6 10 1019.3 1019.3 0.0
18/07:00pm 22.1 22.7 18.5 80 2.3 ESE 13 19 7 10 1019.0 1019.0 0.0
18/06:30pm 22.0 22.4 18.2 79 2.4 E 13 20 7 11 1018.6 1018.6 0.0
18/06:00pm 22.4 23.1 18.8 80 2.3 E 13 19 7 10 1017.9 1017.9 0.0
18/05:30pm 22.3 22.1 18.5 79 2.4 E 17 24 9 13 1017.7 1017.7 0.0
18/05:00pm 22.5 22.4 18.7 79 2.4 E 17 26 9 14 1017.4 1017.4 0.0
18/04:30pm 22.7 22.7 18.9 79 2.4 E 17 24 9 13 1017.1 1017.1 0.0
18/04:00pm 22.8 23.1 18.8 78 2.5 E 15 22 8 12 1017.0 1017.0 0.0
18/03:30pm 23.0 22.9 18.7 77 2.7 E 17 24 9 13 1016.9 1016.9 0.0
18/03:00pm 23.3 23.9 19.5 79 2.4 E 15 24 8 13 1016.7 1016.7 0.0
18/02:30pm 23.3 24.6 20.1 82 2.1 ESE 13 20 7 11 1016.8 1016.8 0.0
18/02:00pm 22.9 23.0 19.1 79 2.4 ESE 17 30 9 16 1017.1 1017.1 0.0
18/01:30pm 23.5 23.6 18.4 73 3.2 ENE 15 22 8 12 1017.3 1017.3 0.0
18/01:00pm 23.7 24.7 19.4 77 2.7 ENE 13 20 7 11 1017.5 1017.5 0.0
18/12:30pm 23.4 24.4 19.5 79 2.5 ENE 13 20 7 11 1017.6 1017.6 0.0
18/12:00pm 23.0 23.8 19.8 82 2.1 ENE 15 24 8 13 1017.9 1017.9 0.0
18/11:30am 24.5 25.8 20.2 77 2.8 NE 13 19 7 10 1018.0 1018.0 0.0
18/11:00am 23.2 24.4 19.8 81 2.2 ESE 13 22 7 12 1018.2 1018.2 0.0
18/10:30am 23.4 24.4 18.7 75 3.0 E 11 17 6 9 1018.4 1018.4 0.0
18/10:00am 23.9 24.9 19.4 76 2.9 NE 13 19 7 10 1018.5 1018.5 0.0
18/09:30am 23.0 24.3 20.1 84 1.9 ENE 13 20 7 11 1018.7 1018.7 0.0
18/09:00am 23.2 23.8 18.7 76 2.8 E 13 19 7 10 1018.7 1018.7 0.4
18/08:30am 23.3 24.7 20.4 84 1.9 ESE 13 19 7 10 1018.6 1018.6 0.4
18/08:00am 22.2 23.4 19.9 87 1.5 SE 13 20 7 11 1018.5 1018.5 0.4
18/07:30am 22.4 23.6 19.8 85 1.7 ESE 13 19 7 10 1018.1 1018.1 0.4
18/07:00am 21.4 24.1 20.6 95 0.5 S 7 11 4 6 1017.8 1017.8 0.4
18/06:30am 20.4 22.5 20.2 99 0.1 SSW 9 13 5 7 1017.6 1017.6 0.4
18/06:00am 20.0 22.3 19.8 99 0.1 S 7 11 4 6 1017.3 1017.3 0.4
18/05:30am 19.6 22.7 19.6 100 0.0 SW 2 7 1 4 1017.0 1017.0 0.4
18/05:00am 19.7 21.2 19.7 100 0.0 S 11 13 6 7 1016.5 1016.5 0.4
18/04:30am 19.9 21.9 19.9 100 0.0 S 9 11 5 6 1016.3 1016.3 0.4
18/04:00am 19.9 22.3 19.7 99 0.1 SSW 6 7 3 4 1016.1 1016.1 0.4
18/03:30am 20.1 22.6 19.9 99 0.1 SSW 6 7 3 4 1016.1 1016.1 0.4
18/03:00am 20.5 24.1 19.7 95 0.5 CALM 0 0 0 0 1016.0 1016.0 0.4
18/02:30am 20.6 23.1 19.8 95 0.5 E 6 9 3 5 1016.0 1016.0 0.2
18/02:00am 20.6 23.3 20.3 98 0.2 ESE 6 9 3 5 1015.8 1015.8 0.2
18/01:30am 20.5 23.0 19.8 96 0.4 ESE 6 9 3 5 1016.2 1016.2 0.2
18/01:00am 21.2 23.5 19.8 92 0.9 ESE 7 11 4 6 1016.2 1016.2 0.0
18/12:30am 21.2 23.0 19.5 90 1.1 ESE 9 17 5 9 1016.6 1016.6 0.0
18/12:00am 21.6 23.3 20.2 92 0.9 ESE 11 17 6 9 1016.6 1016.6 0.0
 
Date/Time
EST
Temp
°C
App
Temp
°C
Dew
Point
°C
Rel
Hum
%
Delta-T
°C
Wind Press
QNH
hPa
Press
MSL
hPa
Rain since
9am
mm
Dir  Spd
km/h
Gust
km/h
Spd
kts
Gust
kts
17/11:30pm 21.5 23.1 20.0 91 1.0 E 11 15 6 8 1016.7 1016.7 0.0
17/11:00pm 21.5 23.1 20.0 91 1.0 E 11 15 6 8 1016.9 1016.9 0.0
17/10:30pm 21.6 23.2 19.9 90 1.1 E 11 19 6 10 1016.9 1016.9 0.0
17/10:00pm 21.7 23.0 20.2 91 1.0 E 13 20 7 11 1016.8 1016.8 0.0
17/09:30pm 21.7 23.1 20.3 92 0.9 E 13 22 7 12 1016.8 1016.8 0.0
17/09:00pm 21.7 23.6 20.5 93 0.8 E 11 20 6 11 1016.5 1016.5 0.0
17/08:30pm 21.7 23.8 21.0 96 0.5 E 11 17 6 9 1016.5 1016.5 0.0
17/08:00pm 21.1 24.2 21.1 100 0.0 SE 6 9 3 5 1015.9 1015.9 0.0
17/07:30pm 20.8 23.5 20.6 99 0.1 SSE 7 9 4 5 1015.6 1015.6 0.0
17/07:00pm 20.9 23.2 20.7 99 0.1 SE 9 19 5 10 1015.5 1015.5 0.0
17/06:30pm 20.9 22.9 19.9 94 0.6 SE 9 13 5 7 1015.2 1015.2 0.0
17/06:00pm 21.1 23.3 20.3 95 0.5 SE 9 15 5 8 1015.3 1015.3 0.0
17/05:30pm 21.8 22.8 19.5 87 1.5 SE 13 19 7 10 1015.3 1015.3 0.0
17/05:00pm 22.0 22.8 19.9 88 1.3 ESE 15 19 8 10 1015.1 1015.1 0.0
17/04:30pm 22.3 23.4 19.7 85 1.7 SE 13 22 7 12 1014.9 1014.9 0.0
17/04:00pm 22.9 23.3 19.9 83 1.9 SE 17 24 9 13 1014.8 1014.8 0.0
17/03:30pm 23.0 23.2 18.5 76 2.8 ESE 15 24 8 13 1014.8 1014.8 0.0
17/03:00pm 23.4 23.8 18.9 76 2.9 SE 15 20 8 11 1015.0 1015.0 0.0
17/02:30pm 23.6 23.6 18.9 75 3.0 ESE 17 26 9 14 1015.0 1015.0 0.0
17/02:00pm 23.6 24.0 18.9 75 3.0 SE 15 22 8 12 1015.2 1015.2 0.0
17/01:30pm 23.6 23.9 18.7 74 3.1 ESE 15 24 8 13 1015.5 1015.5 0.0
17/01:00pm 23.8 24.1 18.7 73 3.2 SE 15 24 8 13 1016.0 1016.0 0.0
17/12:30pm 23.3 23.0 18.2 73 3.2 ESE 17 24 9 13 1016.2 1016.2 0.0
17/12:00pm 23.9 23.8 18.8 73 3.2 ESE 17 24 9 13 1016.5 1016.5 0.0
17/11:30am 23.1 23.8 19.7 81 2.2 SE 15 24 8 13 1016.8 1016.8 0.0
17/11:00am 22.5 23.3 19.1 81 2.2 SE 13 20 7 11 1017.2 1017.2 0.0
17/10:30am 23.4 24.0 18.7 75 3.0 SE 13 20 7 11 1017.3 1017.3 0.0
17/10:00am 24.1 24.9 19.8 77 2.8 SE 15 24 8 13 1017.4 1017.4 0.0
17/09:30am 23.4 23.7 19.5 79 2.5 SE 17 24 9 13 1017.7 1017.7 0.0
17/09:00am 22.6 22.4 18.4 77 2.6 SE 17 24 9 13 1017.7 1017.7 2.6
17/08:30am 22.9 23.1 19.3 80 2.3 SE 17 26 9 14 1017.6 1017.6 2.6
17/08:00am 22.9 23.3 19.9 83 1.9 SE 17 28 9 15 1017.6 1017.6 2.6
17/07:30am 22.1 24.7 21.9 99 0.1 SSW 11 17 6 9 1017.4 1017.4 2.6
17/07:00am 21.1 23.6 21.1 100 0.0 SSW 9 13 5 7 1017.3 1017.3 2.6
17/06:30am 20.2 22.7 20.2 100 0.0 SSW 7 11 4 6 1017.0 1017.0 2.6
17/06:00am 19.8 22.1 19.8 100 0.0 SSW 7 11 4 6 1016.7 1016.7 2.6
17/05:30am 19.6 21.4 19.6 100 0.0 SSW 9 11 5 6 1016.3 1016.3 2.6
17/05:00am 19.7 21.9 19.7 100 0.0 SSW 7 9 4 5 1016.1 1016.1 2.6
17/04:30am 19.7 21.6 19.7 100 0.0 S 9 15 5 8 1015.8 1015.8 2.6
17/04:00am 19.8 21.7 19.8 100 0.0 S 9 13 5 7 1015.5 1015.5 2.6
17/03:30am 19.7 21.2 19.7 100 0.0 S 11 17 6 9 1015.4 1015.4 2.0
17/03:00am 19.8 21.2 19.6 99 0.1 SSW 11 15 6 8 1015.5 1015.5 2.0
17/02:30am 19.8 22.0 19.6 99 0.1 SSW 7 11 4 6 1015.6 1015.6 2.0
17/02:00am 20.4 22.9 19.9 97 0.3 SSW 6 9 3 5 1016.0 1016.0 2.0
17/01:30am 20.7 22.7 19.9 95 0.5 SSE 9 15 5 8 1015.9 1015.9 2.0
17/01:00am 20.7 23.1 20.0 96 0.4 SSE 7 11 4 6 1016.0 1016.0 2.0
17/12:30am 20.8 22.9 20.1 96 0.4 SSE 9 15 5 8 1015.9 1015.9 2.0
17/12:00am 20.7 23.0 19.9 95 0.5 SSE 7 13 4 7 1016.1 1016.1 2.0
 
Date/Time
EST
Temp
°C
App
Temp
°C
Dew
Point
°C
Rel
Hum
%
Delta-T
°C
Wind Press
QNH
hPa
Press
MSL
hPa
Rain since
9am
mm
Dir  Spd
km/h
Gust
km/h
Spd
kts
Gust
kts
16/11:30pm 20.7 22.7 20.0 96 0.4 SE 9 15 5 8 1016.2 1016.2 2.0
16/11:00pm 20.8 23.2 20.0 95 0.5 SSE 7 11 4 6 1016.6 1016.6 2.0
16/10:30pm 20.8 22.9 20.1 96 0.4 SSE 9 15 5 8 1016.7 1016.7 2.0
16/10:00pm 20.7 22.7 20.0 96 0.4 SE 9 15 5 8 1016.6 1016.6 2.0
16/09:30pm 20.7 22.7 20.0 96 0.4 SE 9 15 5 8 1017.0 1017.0 2.0
16/09:00pm 21.0 23.2 20.5 97 0.3 SE 9 13 5 7 1017.3 1017.3 2.0
16/08:30pm 21.2 23.8 20.4 95 0.5 SSE 7 13 4 7 1017.5 1017.5 1.8
16/08:00pm 21.2 23.4 20.4 95 0.5 SSE 9 19 5 10 1017.4 1017.4 1.8
16/07:30pm 21.4 23.2 20.4 94 0.6 SSE 11 19 6 10 1017.0 1017.0 1.8
16/07:00pm 21.4 23.7 20.6 95 0.5 SE 9 15 5 8 1016.8 1016.8 1.8
16/06:30pm 21.3 23.5 20.5 95 0.5 SE 9 19 5 10 1016.5 1016.5 1.8
16/06:00pm 21.3 23.6 20.6 96 0.5 SE 9 15 5 8 1016.1 1016.1 1.8
16/05:30pm 21.3 23.2 20.6 96 0.5 ESE 11 19 6 10 1015.8 1015.8 1.8
16/05:00pm 21.5 23.8 21.3 99 0.1 SE 11 20 6 11 1015.4 1015.4 1.8
16/04:30pm 22.4 24.5 20.9 91 1.0 ESE 11 17 6 9 1015.0 1015.0 0.0
16/04:00pm 23.0 24.0 20.3 85 1.7 ESE 15 24 8 13 1014.9 1014.9 0.0
16/03:30pm 22.4 22.3 19.6 84 1.8 SE 19 32 10 17 1014.9 1014.9 0.0
16/03:00pm 23.0 23.3 20.3 85 1.7 ESE 19 30 10 16 1014.9 1014.9 0.0
16/02:30pm 23.0 23.2 20.1 84 1.9 SE 19 32 10 17 1015.1 1015.1 0.0
16/02:00pm 23.4 23.4 19.8 80 2.3 ESE 19 26 10 14 1015.3 1015.3 0.0
16/01:30pm 23.0 22.9 20.0 83 1.9 ESE 20 30 11 16 1015.5 1015.5 0.0
16/01:00pm 23.3 23.3 20.2 83 2.0 ESE 20 32 11 17 1015.8 1015.8 0.0
16/12:30pm 23.3 23.3 20.2 83 2.0 SE 20 32 11 17 1016.1 1016.1 0.0
16/12:00pm 22.8 23.1 20.7 88 1.4 SE 20 32 11 17 1016.3 1016.3 0.0
16/11:30am 23.3 23.6 20.4 84 1.9 SE 19 30 10 16 1016.5 1016.5 0.0
16/11:00am 23.3 23.5 20.1 82 2.1 SE 19 28 10 15 1016.4 1016.4 0.0
16/10:30am 23.8 23.9 20.3 81 2.3 ESE 20 28 11 15 1016.6 1016.6 0.0
16/10:00am 23.3 23.1 19.7 80 2.3 ESE 20 32 11 17 1016.7 1016.7 0.0
16/09:30am 23.6 23.8 20.1 81 2.3 ESE 19 30 10 16 1016.9 1016.9 0.0
16/09:00am 23.8 23.7 19.5 77 2.8 E 19 28 10 15 1017.0 1017.0 24.0
16/08:30am 23.1 23.3 20.2 84 1.9 ESE 19 28 10 15 1016.9 1016.9 23.8
16/08:00am 22.7 23.5 20.6 88 1.4 ESE 17 24 9 13 1016.7 1016.7 23.8
16/07:30am 21.8 22.7 20.8 94 0.6 ESE 17 22 9 12 1016.3 1016.3 23.8
16/07:00am 21.5 21.9 20.7 95 0.5 ESE 19 28 10 15 1015.6 1015.6 23.8
16/06:30am 20.9 21.2 20.7 99 0.1 ESE 20 35 11 19 1015.4 1015.4 23.8
16/06:00am 20.4 22.6 20.4 100 0.0 SSE 9 13 5 7 1014.9 1014.9 23.8
16/05:30am 20.3 20.8 20.1 99 0.1 ESE 17 39 9 21 1014.5 1014.5 23.6
16/05:00am 20.7 21.4 20.5 99 0.1 ESE 17 22 9 12 1014.1 1014.1 23.2
16/04:30am 20.6 21.8 20.6 100 0.0 SE 15 28 8 15 1013.6 1013.6 23.2
16/04:00am 20.4 21.1 20.4 100 0.0 SSE 17 24 9 13 1013.0 1013.0 23.0
16/03:30am 20.6 21.7 20.4 99 0.1 SSE 15 28 8 15 1012.8 1012.8 22.6
16/03:00am 20.4 21.5 20.4 100 0.0 SSE 15 26 8 14 1012.9 1012.9 22.6
16/02:30am 20.2 20.4 20.2 100 0.0 SSE 19 32 10 17 1013.1 1013.1 22.6
16/02:00am 20.2 20.4 20.2 100 0.0 SSE 19 32 10 17 1013.2 1013.2 22.6
16/01:30am 20.2 20.2 20.2 100 0.0 SSE 20 33 11 18 1013.3 1013.3 22.2
16/01:00am 20.1 20.3 20.1 100 0.0 SSE 19 35 10 19 1013.4 1013.4 21.4
16/12:30am 20.3 20.0 20.3 100 0.0 SSE 22 41 12 22 1013.7 1013.7 21.0
16/12:00am 20.0 20.1 20.0 100 0.0 SSE 19 41 10 22 1014.2 1014.2 20.8
 
Date/Time
EST
Temp
°C
App
Temp
°C
Dew
Point
°C
Rel
Hum
%
Delta-T
°C
Wind Press
QNH
hPa
Press
MSL
hPa
Rain since
9am
mm
Dir  Spd
km/h
Gust
km/h
Spd
kts
Gust
kts
15/11:30pm 20.2 20.2 20.2 100 0.0 SSE 20 37 11 20 1014.4 1014.4 19.6
15/11:00pm 20.2 19.5 20.2 100 0.0 SSE 24 50 13 27 1014.7 1014.7 19.6
15/10:30pm 19.8 19.2 19.8 100 0.0 S 22 39 12 21 1015.0 1015.0 19.4
15/10:00pm 19.6 18.2 19.6 100 0.0 S 26 43 14 23 1015.1 1015.1 19.0
15/09:30pm 19.6 17.8 19.6 100 0.0 S 28 46 15 25 1015.1 1015.1 15.4

Other Formats:

Comma delimited format used in spreadsheet applications
http://www.bom.gov.au/fwo/IDQ60801/IDQ60801.94570.axf

JavaScript Object Notation format (JSON) in row-major order
http://www.bom.gov.au/fwo/IDQ60801/IDQ60801.94570.json